Time;durP1;ratioP1;P1;durP2;ratioP2;P2;SDS_P1;SDS_P2;PMS_P1;PMS_P2;Temp;Humidity;BMP_temperature;BMP_pressure;BME280_temperature;BME280_humidity;BME280_pressure;Samples;Min_cycle;Max_cycle;Signal;HPM_P1;HPM_P2
2023/08/15 00:02:14;;;;;;;5.32;4.22;;;;;;;23.34;51.37;65451.25;5052759;28;20218;-53
2023/08/15 00:04:39;;;;;;;6.00;4.13;;;;;;;23.30;51.46;65444.22;5034755;28;20624;-54
2023/08/15 00:07:04;;;;;;;5.30;4.15;;;;;;;23.28;51.64;65442.00;5052706;28;20211;-53
2023/08/15 00:09:33;;;;;;;7.45;4.70;;;;;;;23.23;51.51;65437.03;5052530;28;20212;-53
2023/08/15 00:11:59;;;;;;;5.85;4.50;;;;;;;23.17;51.56;65432.38;5052566;28;20218;-53
2023/08/15 00:14:25;;;;;;;6.50;4.43;;;;;;;23.11;51.78;65425.75;5052472;28;20209;-56
2023/08/15 00:16:51;;;;;;;5.65;4.30;;;;;;;23.16;51.62;65431.28;5051202;28;20205;-54
2023/08/15 00:19:17;;;;;;;4.93;3.92;;;;;;;23.12;51.34;65427.41;5052450;28;20209;-54
2023/08/15 00:21:42;;;;;;;5.78;4.45;;;;;;;23.05;51.98;65417.09;5052075;28;20205;-53
2023/08/15 00:24:09;;;;;;;5.28;3.78;;;;;;;23.08;51.54;65420.41;5052427;28;20202;-53
2023/08/15 00:26:34;;;;;;;7.88;4.68;;;;;;;23.05;51.47;65416.53;5052109;28;20206;-53
2023/08/15 00:29:00;;;;;;;7.88;4.00;;;;;;;23.04;51.62;65415.97;5034222;28;20234;-55
2023/08/15 00:31:25;;;;;;;7.30;4.53;;;;;;;22.96;51.47;65407.13;5052357;28;20209;-55
2023/08/15 00:33:51;;;;;;;7.57;4.60;;;;;;;22.86;52.59;65396.06;5052114;28;20224;-54
2023/08/15 00:36:17;;;;;;;4.97;3.78;;;;;;;22.84;53.55;65398.41;5052223;28;20648;-53
2023/08/15 00:38:43;;;;;;;8.07;4.38;;;;;;;22.86;53.00;65396.06;5052056;28;20205;-55
2023/08/15 00:41:08;;;;;;;4.93;3.83;;;;;;;22.87;52.72;65397.16;5052241;28;20652;-53
2023/08/15 00:43:34;;;;;;;5.15;4.05;;;;;;;22.90;52.77;65400.47;5051880;28;20594;-54
2023/08/15 00:46:02;;;;;;;5.35;4.30;;;;;;;22.82;52.02;65393.63;5033994;28;20648;-53
2023/08/15 00:48:29;;;;;;;6.90;3.67;;;;;;;22.65;54.39;65375.34;5051993;28;20270;-54
2023/08/15 00:50:58;;;;;;;7.15;4.28;;;;;;;22.63;53.59;65375.72;5052026;28;20746;-53
2023/08/15 00:53:25;;;;;;;6.43;4.40;;;;;;;22.56;53.93;65365.38;5051964;28;20330;-55
2023/08/15 00:55:54;;;;;;;5.78;3.85;;;;;;;22.51;54.55;65359.84;5051782;28;20197;-53
2023/08/15 00:58:19;;;;;;;6.82;4.18;;;;;;;22.53;54.38;65362.03;5051828;28;20247;-54
2023/08/15 01:00:45;;;;;;;8.10;4.30;;;;;;;22.41;55.21;65346.75;5052032;28;20284;-54
2023/08/15 01:03:12;;;;;;;6.30;4.13;;;;;;;22.43;55.80;65348.41;5051852;28;20227;-55
2023/08/15 01:05:39;;;;;;;6.75;4.45;;;;;;;22.41;56.74;65349.31;5034099;28;20205;-54
2023/08/15 01:08:06;;;;;;;6.45;4.30;;;;;;;22.44;57.13;65349.53;5051488;28;20224;-59
2023/08/15 01:10:31;;;;;;;6.55;4.35;;;;;;;22.30;56.86;65337.13;5052005;28;20204;-54
2023/08/15 01:13:12;;;;;;;8.25;4.80;;;;;;;22.15;58.53;65320.53;5051500;28;20217;-54
2023/08/15 01:15:41;;;;;;;5.18;3.95;;;;;;;22.06;59.51;65310.56;5051425;28;20209;-54
2023/08/15 01:18:15;;;;;;;5.78;4.07;;;;;;;22.12;59.91;65314.66;5051624;28;20212;-54
2023/08/15 01:20:42;;;;;;;6.00;4.43;;;;;;;22.20;61.33;65325.53;5052213;28;20336;-53
2023/08/15 01:23:08;;;;;;;5.43;4.10;;;;;;;21.98;61.98;65301.19;5051418;28;20276;-59
2023/08/15 01:25:41;;;;;;;5.38;3.90;;;;;;;21.75;62.46;65274.22;5051606;28;20193;-55
2023/08/15 01:28:12;;;;;;;7.15;4.13;;;;;;;21.62;63.39;65262.44;5051090;28;20208;-55
2023/08/15 01:30:46;;;;;;;5.07;4.07;;;;;;;21.53;61.92;65251.91;5051477;28;20220;-57
2023/08/15 01:33:34;;;;;;;7.15;4.65;;;;;;;21.60;62.03;65260.22;5033492;28;20205;-54
2023/08/15 01:36:12;;;;;;;5.65;4.25;;;;;;;21.69;61.23;65270.16;5051313;28;20202;-54
2023/08/15 01:38:55;;;;;;;6.53;4.68;;;;;;;21.69;61.58;65267.06;5033135;28;20209;-55
2023/08/15 01:41:24;;;;;;;5.47;4.38;;;;;;;21.74;61.24;65272.56;5051344;28;20220;-54
2023/08/15 01:43:51;;;;;;;5.60;4.05;;;;;;;21.59;61.82;65259.09;5050872;28;20209;-54
2023/08/15 01:46:18;;;;;;;4.90;3.83;;;;;;;21.54;61.54;65251.00;5033117;28;20224;-54
2023/08/15 01:48:43;;;;;;;6.07;4.50;;;;;;;21.48;62.36;65243.81;5051347;28;20244;-54
2023/08/15 01:51:09;;;;;;;8.10;4.68;;;;;;;21.49;62.63;65244.94;5051118;28;20681;-54
2023/08/15 01:53:37;;;;;;;9.07;4.00;;;;;;;21.38;63.75;65233.31;5050728;28;20201;-54
2023/08/15 01:56:02;;;;;;;8.23;4.28;;;;;;;21.39;64.00;65239.53;5050934;28;20291;-55
2023/08/15 01:58:28;;;;;;;5.50;4.30;;;;;;;21.30;63.82;65223.91;5050816;28;20699;-54
2023/08/15 02:00:54;;;;;;;6.10;4.90;;;;;;;21.35;62.81;65232.56;5051263;28;20201;-56
2023/08/15 02:03:19;;;;;;;4.72;4.05;;;;;;;21.34;63.50;65231.44;5033230;28;20201;-55
2023/08/15 02:05:45;;;;;;;4.40;4.00;;;;;;;21.35;63.31;65235.13;5050793;28;20540;-55
2023/08/15 02:08:10;;;;;;;9.00;4.60;;;;;;;21.43;61.88;65241.41;5050724;28;20216;-55
2023/08/15 02:10:36;;;;;;;4.47;3.97;;;;;;;21.51;61.40;65252.81;5032807;28;20193;-54
2023/08/15 02:13:01;;;;;;;9.57;4.20;;;;;;;21.47;61.79;65245.81;5050965;28;20603;-55
2023/08/15 02:15:27;;;;;;;4.35;3.55;;;;;;;21.49;61.40;65247.50;5050649;28;20201;-54
2023/08/15 02:17:53;;;;;;;5.40;4.00;;;;;;;21.54;60.82;65256.13;5050416;28;20209;-54
2023/08/15 02:20:19;;;;;;;6.20;3.90;;;;;;;21.48;61.01;65246.94;5050886;28;20201;-55
2023/08/15 02:22:45;;;;;;;6.68;3.78;;;;;;;21.44;61.51;65242.50;5050463;28;20231;-54
2023/08/15 02:25:10;;;;;;;7.35;4.47;;;;;;;21.42;61.88;65240.31;5050526;28;20197;-53
2023/08/15 02:27:35;;;;;;;6.70;4.40;;;;;;;21.56;60.79;65255.22;5015910;28;20292;-53
2023/08/15 02:30:01;;;;;;;10.40;4.43;;;;;;;21.58;60.70;65254.88;5050826;28;20563;-54
2023/08/15 02:32:27;;;;;;;5.85;4.32;;;;;;;21.58;61.23;65252.31;5050237;28;20320;-54
2023/08/15 02:34:52;;;;;;;5.35;4.10;;;;;;;21.56;60.89;65255.78;5050159;28;20703;-54
2023/08/15 02:37:18;;;;;;;5.78;4.70;;;;;;;21.59;61.08;65259.09;5050058;28;20208;-57
2023/08/15 02:39:43;;;;;;;6.22;4.57;;;;;;;21.57;61.11;65256.88;5049720;28;20683;-55
2023/08/15 02:42:09;;;;;;;6.93;3.95;;;;;;;21.57;61.96;65256.88;5050081;28;20576;-54
2023/08/15 02:44:34;;;;;;;7.38;4.15;;;;;;;21.62;62.13;65261.88;5032364;28;20659;-55
2023/08/15 02:47:00;;;;;;;5.63;4.30;;;;;;;21.64;60.95;65264.63;5050036;28;20205;-54
2023/08/15 02:49:26;;;;;;;5.95;4.43;;;;;;;21.64;62.59;65264.06;5050149;28;20289;-57
2023/08/15 02:51:51;;;;;;;7.97;4.45;;;;;;;21.71;61.94;65269.81;5050017;28;20633;-51
2023/08/15 02:54:17;;;;;;;4.93;4.15;;;;;;;21.74;59.40;65275.69;5050097;28;20659;-57
2023/08/15 02:56:42;;;;;;;7.22;4.15;;;;;;;21.71;59.60;65269.81;5050349;28;20246;-50
2023/08/15 02:59:08;;;;;;;5.32;4.32;;;;;;;21.64;59.73;65262.06;5050556;28;20201;-52
2023/08/15 03:01:34;;;;;;;6.95;4.35;;;;;;;21.60;59.94;65262.78;5049996;28;20300;-50
2023/08/15 03:03:59;;;;;;;5.85;3.60;;;;;;;21.64;61.00;65264.63;5049927;28;20259;-50
2023/08/15 03:06:25;;;;;;;6.57;4.35;;;;;;;21.73;59.65;65276.63;5049803;28;20205;-50
2023/08/15 03:08:50;;;;;;;6.20;4.15;;;;;;;21.66;59.79;65266.84;5049876;28;20642;-50
2023/08/15 03:11:16;;;;;;;5.85;4.05;;;;;;;21.65;60.11;65262.63;5049921;28;20220;-50
2023/08/15 03:13:41;;;;;;;6.95;4.60;;;;;;;21.63;60.39;65260.94;5049720;28;20237;-50
2023/08/15 03:16:07;;;;;;;5.63;4.05;;;;;;;21.63;60.39;65260.94;5032034;28;20699;-50
2023/08/15 03:18:33;;;;;;;9.45;4.68;;;;;;;21.58;60.90;65254.88;5050412;28;20240;-51
2023/08/15 03:21:01;;;;;;;5.15;4.63;;;;;;;21.51;61.37;65252.81;5049794;28;20219;-51
2023/08/15 03:23:26;;;;;;;6.25;4.50;;;;;;;21.51;61.55;65247.69;5049682;28;20292;-51
2023/08/15 03:26:00;;;;;;;5.25;3.95;;;;;;;21.47;61.86;65248.38;5049668;28;20284;-50
2023/08/15 03:28:26;;;;;;;5.43;4.63;;;;;;;21.54;62.54;65253.56;5049627;28;20198;-51
2023/08/15 03:30:51;;;;;;;5.10;4.40;;;;;;;21.57;61.40;65256.88;5049418;28;20636;-51
2023/08/15 03:33:17;;;;;;;6.90;4.63;;;;;;;21.57;61.48;65259.44;5049528;28;20263;-50
2023/08/15 03:35:47;;;;;;;6.70;4.85;;;;;;;21.47;61.74;65243.25;5049214;28;20726;-50
2023/08/15 03:38:20;;;;;;;8.65;4.65;;;;;;;21.45;62.33;65243.59;5031667;28;20213;-51
2023/08/15 03:40:48;;;;;;;4.78;4.05;;;;;;;21.44;62.30;65239.94;5049369;28;20252;-51
2023/08/15 03:43:14;;;;;;;6.15;4.65;;;;;;;21.48;63.00;65246.94;5031328;28;20687;-51
2023/08/15 03:45:40;;;;;;;8.52;4.80;;;;;;;21.56;61.73;65255.22;5031394;28;20194;-49
2023/08/15 03:48:07;;;;;;;6.82;5.30;;;;;;;21.55;62.01;65254.66;5049720;28;20205;-50
2023/08/15 03:50:38;;;;;;;6.57;4.82;;;;;;;21.67;61.00;65270.50;5050753;28;20706;-54
2023/08/15 03:53:04;;;;;;;5.97;4.45;;;;;;;21.66;60.50;65263.72;5034597;28;20295;-50
2023/08/15 03:55:31;;;;;;;8.23;4.22;;;;;;;21.73;60.97;65274.59;5052660;28;20217;-50
2023/08/15 03:57:57;;;;;;;8.35;4.78;;;;;;;21.67;61.48;65267.41;5052925;28;20214;-51
2023/08/15 04:00:23;;;;;;;6.50;4.15;;;;;;;21.59;62.33;65259.09;5052538;28;20204;-50
2023/08/15 04:02:49;;;;;;;6.32;4.78;;;;;;;21.64;62.46;65261.50;5034684;28;20308;-50
2023/08/15 04:05:15;;;;;;;7.18;4.65;;;;;;;21.71;60.73;65271.84;5052534;28;20300;-51
2023/08/15 04:07:40;;;;;;;5.90;4.55;;;;;;;21.71;60.81;65272.38;5052534;28;20296;-54
2023/08/15 04:10:07;;;;;;;7.93;5.53;;;;;;;21.63;61.94;65263.53;5052618;28;20250;-51
2023/08/15 04:12:34;;;;;;;6.95;5.10;;;;;;;21.62;61.50;65262.44;5052283;28;20255;-51
2023/08/15 04:15:00;;;;;;;7.70;4.90;;;;;;;21.55;62.09;65254.13;5052548;28;20371;-51
2023/08/15 04:17:26;;;;;;;5.30;4.32;;;;;;;21.71;60.67;65271.84;5034277;28;20205;-51
2023/08/15 04:19:53;;;;;;;5.53;4.30;;;;;;;21.77;59.98;65278.47;5052220;28;20193;-50
2023/08/15 04:22:18;;;;;;;5.78;4.25;;;;;;;21.71;60.41;65272.38;5052135;28;20205;-53
2023/08/15 04:24:44;;;;;;;7.20;4.30;;;;;;;21.69;60.32;65270.16;5052289;28;20698;-53
2023/08/15 04:27:10;;;;;;;7.25;5.15;;;;;;;21.62;61.56;65259.31;5052073;28;20210;-51
2023/08/15 04:29:36;;;;;;;8.10;4.25;;;;;;;21.74;59.98;65275.69;5052751;28;20204;-51
2023/08/15 04:32:01;;;;;;;6.63;4.65;;;;;;;21.70;61.29;65271.28;5051794;28;20292;-51
2023/08/15 04:34:27;;;;;;;5.10;4.47;;;;;;;21.73;60.34;65274.59;5052277;28;20205;-50
2023/08/15 04:36:53;;;;;;;7.68;4.68;;;;;;;21.88;60.94;65290.66;5033953;28;20217;-50
2023/08/15 04:39:18;;;;;;;8.52;4.53;;;;;;;21.98;59.55;65301.72;5052189;28;20315;-51
2023/08/15 04:41:44;;;;;;;7.80;4.47;;;;;;;21.93;60.04;65293.06;5051834;28;20270;-50
2023/08/15 04:44:10;;;;;;;6.47;4.82;;;;;;;22.01;60.76;65301.91;5052171;28;20266;-51
2023/08/15 04:46:36;;;;;;;7.53;4.65;;;;;;;21.94;61.11;65296.75;5051723;28;20680;-50
2023/08/15 04:49:02;;;;;;;8.30;4.70;;;;;;;22.09;61.64;65313.34;5051768;28;20206;-50
2023/08/15 04:51:28;;;;;;;8.30;5.35;;;;;;;22.13;61.36;65318.31;5051687;28;20236;-51
2023/08/15 04:53:54;;;;;;;14.02;5.07;;;;;;;21.82;62.50;65280.88;5052358;28;20221;-50
2023/08/15 04:56:28;;;;;;;5.93;4.78;;;;;;;21.92;60.10;65292.50;5052330;28;20718;-50
2023/08/15 04:58:54;;;;;;;5.57;4.38;;;;;;;21.83;61.17;65287.13;5051664;28;20201;-50
2023/08/15 05:01:19;;;;;;;5.80;4.07;;;;;;;21.97;60.04;65297.50;5051712;28;20201;-51
2023/08/15 05:03:44;;;;;;;8.07;4.88;;;;;;;21.95;60.41;65295.28;5051302;28;20215;-54
2023/08/15 05:06:10;;;;;;;6.43;4.75;;;;;;;21.99;59.15;65300.28;5051824;28;20207;-51
2023/08/15 05:08:35;;;;;;;8.30;4.72;;;;;;;21.93;59.29;65293.63;5051708;28;20205;-51
2023/08/15 05:11:01;;;;;;;7.57;4.60;;;;;;;21.86;59.38;65285.31;5051579;28;20696;-52
2023/08/15 05:13:26;;;;;;;6.03;4.53;;;;;;;21.77;59.92;65277.91;5033620;28;20680;-51
2023/08/15 05:15:53;;;;;;;6.38;4.85;;;;;;;21.77;60.52;65277.91;5051668;28;20691;-54
2023/08/15 05:18:20;;;;;;;7.00;4.93;;;;;;;21.74;60.57;65278.25;5033606;28;20250;-55
2023/08/15 05:20:46;;;;;;;6.72;4.55;;;;;;;21.72;62.44;65272.94;5051974;28;20224;-55
2023/08/15 05:23:12;;;;;;;9.25;4.80;;;;;;;21.88;61.07;65287.53;5051885;28;20206;-53
2023/08/15 05:25:37;;;;;;;8.35;5.45;;;;;;;21.77;64.06;65276.44;5051513;28;20208;-52
2023/08/15 05:28:04;;;;;;;13.55;5.38;;;;;;;21.93;64.21;65293.63;5051163;28;20605;-52
2023/08/15 05:30:31;;;;;;;5.38;4.72;;;;;;;21.97;63.13;65302.63;5051789;28;20244;-51
2023/08/15 05:32:57;;;;;;;11.32;5.03;;;;;;;21.92;64.64;65295.06;5051558;28;20213;-53
2023/08/15 05:35:23;;;;;;;6.45;4.85;;;;;;;21.99;65.05;65302.28;5051278;28;20308;-52
2023/08/15 05:37:49;;;;;;;7.20;4.80;;;;;;;21.99;64.25;65305.41;5051389;28;20612;-56
2023/08/15 05:40:15;;;;;;;9.43;4.32;;;;;;;21.60;62.86;65259.66;5051209;28;20200;-53
2023/08/15 05:42:40;;;;;;;6.82;4.32;;;;;;;21.96;64.91;65298.97;5051031;28;20219;-53
2023/08/15 05:45:06;;;;;;;6.03;3.95;;;;;;;22.12;62.81;65314.09;5051199;28;20202;-53
2023/08/15 05:47:32;;;;;;;7.50;4.80;;;;;;;22.06;63.39;65310.03;5050942;28;20268;-52
2023/08/15 05:49:58;;;;;;;8.32;4.70;;;;;;;21.97;64.84;65300.63;5051161;28;20205;-53
2023/08/15 05:52:23;;;;;;;5.22;4.38;;;;;;;21.92;65.11;65294.53;5051315;28;20205;-53
2023/08/15 05:54:49;;;;;;;6.03;3.90;;;;;;;21.82;64.02;65283.47;5050924;28;20564;-56
2023/08/15 05:57:14;;;;;;;5.05;3.92;;;;;;;21.85;65.61;65284.22;5033087;28;20270;-52
2023/08/15 05:59:40;;;;;;;7.00;4.32;;;;;;;21.82;65.27;65280.88;5033296;28;20683;-53
2023/08/15 06:02:05;;;;;;;4.80;4.22;;;;;;;21.83;64.65;65285.13;5050783;28;20218;-53
2023/08/15 06:04:31;;;;;;;7.10;4.30;;;;;;;21.87;64.87;65289.56;5032942;28;20201;-51
2023/08/15 06:06:56;;;;;;;5.93;4.00;;;;;;;21.82;65.96;65283.47;5051102;28;20752;-52
2023/08/15 06:09:22;;;;;;;6.82;4.55;;;;;;;21.80;66.73;65281.22;5033092;28;20192;-53
2023/08/15 06:11:50;;;;;;;6.72;4.20;;;;;;;21.82;67.07;65281.44;5050856;28;20289;-53
2023/08/15 06:14:16;;;;;;;6.90;4.53;;;;;;;21.81;66.90;65282.91;5049575;28;20339;-53
2023/08/15 06:16:42;;;;;;;7.03;4.53;;;;;;;21.87;67.73;65286.44;5050382;28;20236;-53
2023/08/15 06:19:08;;;;;;;7.43;4.53;;;;;;;21.95;68.12;65298.41;5051161;28;20229;-52
2023/08/15 06:21:33;;;;;;;6.90;4.40;;;;;;;22.04;65.48;65307.81;5032839;28;20208;-53
2023/08/15 06:23:59;;;;;;;9.63;5.05;;;;;;;21.87;66.39;65289.00;5050619;28;20783;-53
2023/08/15 06:26:24;;;;;;;8.18;4.78;;;;;;;21.75;67.85;65273.69;5050509;28;20209;-53
2023/08/15 06:28:50;;;;;;;8.43;4.32;;;;;;;21.80;67.75;65278.66;5051234;28;20206;-56
2023/08/15 06:31:15;;;;;;;7.90;4.85;;;;;;;21.75;67.30;65271.13;5050946;28;20517;-53
2023/08/15 06:33:41;;;;;;;7.63;4.63;;;;;;;21.81;68.98;65280.34;5050805;28;20189;-52
2023/08/15 06:36:07;;;;;;;9.10;4.30;;;;;;;21.71;70.37;65272.38;5050423;28;20284;-53
2023/08/15 06:38:33;;;;;;;8.63;4.90;;;;;;;21.61;70.64;65258.19;5050412;28;20205;-53
2023/08/15 06:40:58;;;;;;;7.68;4.28;;;;;;;21.68;71.26;65271.63;5050430;28;20201;-53
2023/08/15 06:43:24;;;;;;;5.30;3.70;;;;;;;21.60;71.94;65254.53;5050371;28;20197;-52
2023/08/15 06:45:50;;;;;;;4.25;3.85;;;;;;;21.71;71.87;65271.84;5050330;28;20209;-52
2023/08/15 06:48:15;;;;;;;5.97;3.83;;;;;;;21.69;71.90;65267.59;5050390;28;20271;-53
2023/08/15 06:50:40;;;;;;;7.35;4.43;;;;;;;21.78;72.53;65282.13;5050522;28;20680;-53
2023/08/15 06:53:06;;;;;;;7.38;3.85;;;;;;;21.72;73.42;65270.38;5050562;28;20204;-54
2023/08/15 06:55:32;;;;;;;4.40;3.88;;;;;;;21.79;72.65;65277.56;5050202;28;20218;-53
2023/08/15 06:57:58;;;;;;;6.38;4.47;;;;;;;21.77;73.52;65281.56;5050703;28;20288;-56
2023/08/15 07:00:24;;;;;;;5.25;4.38;;;;;;;21.73;74.02;65274.59;5032644;28;20302;-57
2023/08/15 07:02:50;;;;;;;7.75;4.50;;;;;;;21.72;74.61;65275.50;5032159;28;20245;-52
2023/08/15 07:05:16;;;;;;;5.65;4.57;;;;;;;21.75;74.49;65273.69;5050306;28;20184;-53
2023/08/15 07:07:41;;;;;;;8.32;4.90;;;;;;;21.73;75.13;65274.03;5049966;28;20221;-52
2023/08/15 07:10:07;;;;;;;6.47;4.50;;;;;;;21.84;74.57;65288.78;5015706;28;20201;-56
2023/08/15 07:12:34;;;;;;;6.53;4.38;;;;;;;21.81;74.80;65280.34;5049806;28;20212;-53
2023/08/15 07:15:00;;;;;;;6.85;4.07;;;;;;;21.91;75.06;65293.44;5050031;28;20657;-52
2023/08/15 07:17:25;;;;;;;6.15;4.75;;;;;;;21.91;75.51;65293.97;5049822;28;20295;-53
2023/08/15 07:19:51;;;;;;;7.75;4.88;;;;;;;21.62;78.31;65259.84;5049945;28;20277;-52
2023/08/15 07:22:16;;;;;;;10.65;4.68;;;;;;;21.64;77.30;65264.63;5049810;28;20780;-54
2023/08/15 07:24:42;;;;;;;7.13;4.63;;;;;;;21.79;76.62;65280.13;5050140;28;20264;-53
2023/08/15 07:27:07;;;;;;;6.82;4.47;;;;;;;21.82;76.90;65278.88;5053691;28;20567;-52
2023/08/15 07:29:33;;;;;;;6.63;4.57;;;;;;;21.94;78.12;65297.28;5054147;28;20189;-55
2023/08/15 07:31:58;;;;;;;9.45;4.57;;;;;;;22.07;77.02;65311.13;5053097;28;20237;-57
2023/08/15 07:34:23;;;;;;;19.20;12.73;;;;;;;22.03;76.41;65306.69;5035293;28;20659;-53
2023/08/15 07:36:49;;;;;;;7.25;4.95;;;;;;;22.14;76.45;65316.31;5035182;28;20210;-53
2023/08/15 07:39:15;;;;;;;9.98;4.70;;;;;;;22.13;75.36;65317.78;5053519;28;20280;-52
2023/08/15 07:41:41;;;;;;;8.75;5.53;;;;;;;22.06;75.93;65308.00;5053100;28;20209;-53
2023/08/15 07:44:08;;;;;;;16.45;11.38;;;;;;;22.02;77.35;65303.56;5035177;28;20202;-52
2023/08/15 07:46:33;;;;;;;12.07;6.40;;;;;;;22.02;77.06;65305.59;5052981;28;20243;-53
2023/08/15 07:48:58;;;;;;;10.35;7.00;;;;;;;22.07;77.23;65309.13;5053491;28;20209;-52
2023/08/15 07:51:25;;;;;;;10.63;7.05;;;;;;;22.11;77.86;65313.00;5053032;28;20263;-53
2023/08/15 07:53:50;;;;;;;12.30;7.97;;;;;;;22.11;77.43;65315.56;5052828;28;20201;-52
2023/08/15 07:56:16;;;;;;;9.63;5.20;;;;;;;22.00;77.18;65300.81;5052772;28;20201;-53
2023/08/15 07:58:41;;;;;;;10.25;7.07;;;;;;;22.13;77.42;65318.31;5053388;28;20205;-53
2023/08/15 08:01:08;;;;;;;10.13;4.95;;;;;;;22.18;76.81;65320.75;5053517;28;20193;-53
2023/08/15 08:03:38;;;;;;;13.65;7.15;;;;;;;22.03;78.14;65306.69;5052783;28;20219;-52
2023/08/15 08:06:05;;;;;;;7.97;5.55;;;;;;;21.91;78.51;65293.97;5034694;28;20206;-53
2023/08/15 08:08:30;;;;;;;7.60;4.57;;;;;;;21.98;77.67;65298.63;5052853;28;20197;-53
2023/08/15 08:10:56;;;;;;;9.50;5.18;;;;;;;22.04;77.30;65305.78;5052720;28;20205;-52
2023/08/15 08:13:21;;;;;;;9.93;4.68;;;;;;;21.85;81.25;65284.22;5052601;28;20194;-53
2023/08/15 08:15:48;;;;;;;9.45;4.82;;;;;;;21.81;85.21;65284.91;5052479;28;20777;-55
2023/08/15 08:18:13;;;;;;;7.75;5.72;;;;;;;21.98;88.63;65301.19;5052586;28;20205;-53
2023/08/15 08:20:39;;;;;;;10.15;5.50;;;;;;;21.77;91.77;65279.00;5052642;28;20589;-58
2023/08/15 08:23:06;;;;;;;7.68;5.20;;;;;;;21.36;92.54;65236.22;5052459;28;20206;-53
2023/08/15 08:25:32;;;;;;;10.38;5.22;;;;;;;21.51;90.33;65249.72;5052455;28;20284;-53
2023/08/15 08:27:57;;;;;;;6.65;5.50;;;;;;;21.59;91.11;65261.66;5052550;28;20298;-53
2023/08/15 08:30:23;;;;;;;5.43;4.85;;;;;;;21.67;92.55;65267.41;5053278;28;20199;-54
2023/08/15 08:32:51;;;;;;;6.75;4.90;;;;;;;21.73;91.82;65271.47;5052113;28;20202;-51
2023/08/15 08:35:17;;;;;;;9.20;5.30;;;;;;;21.85;91.74;65284.22;5052531;28;20209;-52
2023/08/15 08:37:44;;;;;;;8.05;5.05;;;;;;;21.79;92.17;65282.69;5051533;28;20268;-52
2023/08/15 08:40:12;;;;;;;7.93;5.07;;;;;;;21.89;89.47;65294.34;5052168;28;20680;-52
2023/08/15 08:42:40;;;;;;;6.15;5.05;;;;;;;21.94;90.91;65296.75;5051942;28;20225;-52
2023/08/15 08:45:08;;;;;;;9.38;5.25;;;;;;;22.09;86.69;65311.34;5052129;28;20204;-50
2023/08/15 08:47:37;;;;;;;9.00;5.50;;;;;;;21.92;82.50;65295.06;5034001;28;20217;-51
2023/08/15 08:50:05;;;;;;;6.70;4.95;;;;;;;21.74;84.09;65275.69;5052542;28;20189;-51
2023/08/15 08:52:31;;;;;;;9.55;5.38;;;;;;;21.81;81.82;65282.91;5052372;28;20304;-50
2023/08/15 08:54:57;;;;;;;6.28;5.22;;;;;;;21.68;83.17;65269.06;5052031;28;20296;-51
2023/08/15 08:57:24;;;;;;;8.77;5.28;;;;;;;21.66;84.34;65269.41;5051895;28;20656;-51
2023/08/15 08:59:53;;;;;;;8.38;5.80;;;;;;;21.61;84.32;65256.19;5051759;28;20237;-55
2023/08/15 09:02:21;;;;;;;9.07;5.72;;;;;;;21.63;85.35;65263.53;5034041;28;20232;-50
2023/08/15 09:04:47;;;;;;;6.18;5.10;;;;;;;21.68;86.25;65269.06;5034021;28;20197;-50
2023/08/15 09:07:16;;;;;;;8.52;5.38;;;;;;;21.56;89.11;65258.34;5051992;28;20279;-51
2023/08/15 09:09:42;;;;;;;7.40;5.32;;;;;;;21.59;90.55;65259.09;5052041;28;20263;-51
2023/08/15 09:12:07;;;;;;;7.05;5.65;;;;;;;21.68;92.18;65268.50;5051780;28;20684;-50
2023/08/15 09:14:40;;;;;;;6.18;5.35;;;;;;;21.60;86.54;65260.22;5051522;28;20216;-51
2023/08/15 09:17:06;;;;;;;7.35;5.93;;;;;;;21.70;87.87;65271.28;5051700;28;20217;-52
2023/08/15 09:19:39;;;;;;;7.82;5.40;;;;;;;21.93;88.28;65293.06;5051975;28;20589;-50
2023/08/15 09:22:04;;;;;;;8.30;5.68;;;;;;;22.01;84.68;65301.91;5052043;28;20209;-52
2023/08/15 09:24:30;;;;;;;7.30;5.10;;;;;;;22.03;84.31;65304.13;5033818;28;20704;-51
2023/08/15 09:26:56;;;;;;;10.27;5.65;;;;;;;21.79;86.60;65280.13;5051302;28;20527;-51
2023/08/15 09:29:22;;;;;;;8.52;6.00;;;;;;;21.63;86.02;65262.97;5051763;28;20282;-50
2023/08/15 09:31:49;;;;;;;8.05;5.47;;;;;;;21.96;85.91;65296.41;5051395;28;20209;-51
2023/08/15 09:34:15;;;;;;;14.52;5.70;;;;;;;21.94;85.36;65294.19;5051210;28;20625;-51
2023/08/15 09:36:41;;;;;;;5.82;5.25;;;;;;;21.89;89.08;65291.22;5051084;28;20303;-50
2023/08/15 09:39:08;;;;;;;6.88;6.03;;;;;;;21.81;90.15;65279.78;5051735;28;20239;-51
2023/08/15 09:41:39;;;;;;;8.38;6.05;;;;;;;21.79;89.30;65280.13;5051351;28;20206;-51
2023/08/15 09:44:05;;;;;;;8.35;6.32;;;;;;;21.72;88.99;65273.50;5051122;28;20213;-50
2023/08/15 09:46:31;;;;;;;10.50;5.97;;;;;;;21.92;88.56;65291.97;5051102;28;20205;-50
2023/08/15 09:48:57;;;;;;;7.32;5.57;;;;;;;21.99;88.52;65302.84;5050957;28;20240;-51
2023/08/15 09:51:29;;;;;;;7.60;5.47;;;;;;;21.94;87.37;65294.19;5033325;28;20306;-51
2023/08/15 09:53:56;;;;;;;8.15;6.00;;;;;;;21.91;85.75;65296.56;5051162;28;20216;-52
2023/08/15 09:56:22;;;;;;;7.05;5.65;;;;;;;22.02;87.35;65303.56;5051141;28;20220;-51
2023/08/15 09:58:47;;;;;;;11.32;6.03;;;;;;;21.93;87.55;65293.06;5050865;28;20210;-51
2023/08/15 10:01:17;;;;;;;7.25;5.63;;;;;;;22.05;88.80;65312.03;5050807;28;20598;-51
2023/08/15 10:03:44;;;;;;;8.00;5.80;;;;;;;22.05;90.41;65308.91;5051194;28;20213;-52
2023/08/15 10:06:10;;;;;;;11.18;6.07;;;;;;;22.04;88.96;65310.38;5050782;28;20375;-51
2023/08/15 10:08:39;;;;;;;6.97;5.75;;;;;;;22.25;88.62;65334.19;5051540;28;20209;-51
2023/08/15 10:11:07;;;;;;;6.95;5.82;;;;;;;22.32;87.85;65339.34;5051165;28;20209;-51
2023/08/15 10:13:36;;;;;;;7.60;5.70;;;;;;;22.50;83.06;65356.16;5050566;28;20728;-51
2023/08/15 10:16:04;;;;;;;7.72;5.75;;;;;;;22.37;85.32;65342.31;5050761;28;20221;-51
2023/08/15 10:18:31;;;;;;;11.75;6.00;;;;;;;22.41;81.54;65346.19;5050861;28;20220;-51
2023/08/15 10:21:04;;;;;;;8.25;5.13;;;;;;;22.15;79.90;65317.97;5051100;28;20186;-51
2023/08/15 10:23:34;;;;;;;7.30;5.43;;;;;;;22.18;82.72;65320.75;5050719;28;20224;-51
2023/08/15 10:26:04;;;;;;;6.68;4.93;;;;;;;22.22;83.19;65328.28;5050775;28;20201;-52
2023/08/15 10:28:33;;;;;;;6.75;4.65;;;;;;;22.40;81.03;65348.19;5051114;28;20209;-52
2023/08/15 10:30:59;;;;;;;7.38;4.78;;;;;;;22.17;79.89;65322.75;5051005;28;20194;-52
2023/08/15 10:33:28;;;;;;;6.95;5.22;;;;;;;22.25;79.76;65328.47;5051028;28;20292;-53
2023/08/15 10:35:54;;;;;;;5.70;4.45;;;;;;;22.33;78.49;65342.47;5050512;28;20209;-51
2023/08/15 10:38:39;;;;;;;6.78;4.57;;;;;;;22.25;76.89;65331.59;5032702;28;20213;-51
2023/08/15 10:41:06;;;;;;;7.10;4.68;;;;;;;22.28;77.01;65332.34;5033270;28;20216;-51
2023/08/15 10:43:34;;;;;;;7.35;4.72;;;;;;;22.48;76.70;65356.53;5051067;28;20193;-52
2023/08/15 10:46:02;;;;;;;7.57;4.82;;;;;;;22.32;77.52;65338.81;5050326;28;20220;-51
2023/08/15 10:48:43;;;;;;;9.27;4.95;;;;;;;22.51;76.98;65357.81;5050307;28;20206;-51
2023/08/15 10:51:19;;;;;;;5.35;4.85;;;;;;;22.75;73.48;65385.88;5050461;28;20731;-51
2023/08/15 10:53:51;;;;;;;5.53;4.30;;;;;;;22.60;74.44;65367.25;5050316;28;20259;-51
2023/08/15 10:56:18;;;;;;;7.50;5.07;;;;;;;22.78;72.81;65389.75;5050678;28;20217;-50
2023/08/15 10:58:46;;;;;;;6.80;4.20;;;;;;;22.82;72.00;65391.06;5049778;28;20292;-51
2023/08/15 11:01:15;;;;;;;5.35;4.38;;;;;;;22.52;71.96;65358.38;5049171;28;20205;-50
2023/08/15 11:03:42;;;;;;;6.75;4.38;;;;;;;22.41;72.74;65346.19;5050375;28;20301;-51
2023/08/15 11:06:10;;;;;;;4.90;4.32;;;;;;;22.46;73.02;65354.31;5049904;28;20205;-52
2023/08/15 11:08:47;;;;;;;7.45;4.85;;;;;;;22.61;72.76;65370.38;5032129;28;20323;-51
2023/08/15 11:11:14;;;;;;;9.68;4.60;;;;;;;22.68;72.51;65376.13;5049843;28;20201;-50
2023/08/15 11:13:41;;;;;;;5.43;4.45;;;;;;;22.88;71.05;65397.69;5049909;28;20208;-56
2023/08/15 11:16:08;;;;;;;8.32;6.95;;;;;;;22.88;71.45;65398.25;5050092;28;20270;-51
2023/08/15 11:18:35;;;;;;;5.85;5.18;;;;;;;22.89;70.52;65401.94;5049721;28;20197;-50
2023/08/15 11:21:02;;;;;;;7.82;5.13;;;;;;;22.96;70.07;65407.13;5049769;28;20197;-51
2023/08/15 11:23:29;;;;;;;9.88;4.50;;;;;;;23.03;70.74;65414.88;5050094;28;20209;-51
2023/08/15 11:26:25;;;;;;;7.45;4.75;;;;;;;22.98;72.25;65411.91;5050241;28;20247;-51
2023/08/15 11:28:51;;;;;;;7.10;4.75;;;;;;;23.11;72.75;65426.31;5041228;28;20730;-53
2023/08/15 11:31:18;;;;;;;9.90;5.03;;;;;;;23.13;73.92;65425.94;5049457;28;20206;-51